Map

Track Data

SID SEASON NUMBER BASIN SUBBASIN NAME ISO_TIME NATURE LAT LON WMO_WIND WMO_PRES WMO_AGENCY TRACK_TYPE DIST2LAND LANDFALL IFLAG USA_AGENCY USA_ATCF_ID USA_LAT USA_LON USA_RECORD USA_STATUS USA_WIND USA_PRES USA_SSHS USA_R34_NE USA_R34_SE USA_R34_SW USA_R34_NW USA_R50_NE USA_R50_SE USA_R50_SW USA_R50_NW USA_R64_NE USA_R64_SE USA_R64_SW USA_R64_NW USA_POCI USA_ROCI USA_RMW USA_EYE TOKYO_LAT TOKYO_LON TOKYO_GRADE TOKYO_WIND TOKYO_PRES TOKYO_R50_DIR TOKYO_R50_LONG TOKYO_R50_SHORT TOKYO_R30_DIR TOKYO_R30_LONG TOKYO_R30_SHORT TOKYO_LAND CMA_LAT CMA_LON CMA_CAT CMA_WIND CMA_PRES HKO_LAT HKO_LON HKO_CAT HKO_WIND HKO_PRES NEWDELHI_LAT NEWDELHI_LON NEWDELHI_GRADE NEWDELHI_WIND NEWDELHI_PRES NEWDELHI_CI NEWDELHI_DP NEWDELHI_POCI REUNION_LAT REUNION_LON REUNION_TYPE REUNION_WIND REUNION_PRES REUNION_TNUM REUNION_CI REUNION_RMW REUNION_R34_NE REUNION_R34_SE REUNION_R34_SW REUNION_R34_NW REUNION_R50_NE REUNION_R50_SE REUNION_R50_SW REUNION_R50_NW REUNION_R64_NE REUNION_R64_SE REUNION_R64_SW REUNION_R64_NW BOM_LAT BOM_LON BOM_TYPE BOM_WIND BOM_PRES BOM_TNUM BOM_CI BOM_RMW BOM_R34_NE BOM_R34_SE BOM_R34_SW BOM_R34_NW BOM_R50_NE BOM_R50_SE BOM_R50_SW BOM_R50_NW BOM_R64_NE BOM_R64_SE BOM_R64_SW BOM_R64_NW BOM_ROCI BOM_POCI BOM_EYE BOM_POS_METHOD BOM_PRES_METHOD NADI_LAT NADI_LON NADI_CAT NADI_WIND NADI_PRES WELLINGTON_LAT WELLINGTON_LON WELLINGTON_WIND WELLINGTON_PRES DS824_LAT DS824_LON DS824_STAGE DS824_WIND DS824_PRES TD9636_LAT TD9636_LON TD9636_STAGE TD9636_WIND TD9636_PRES TD9635_LAT TD9635_LON TD9635_WIND TD9635_PRES TD9635_ROCI NEUMANN_LAT NEUMANN_LON NEUMANN_CLASS NEUMANN_WIND NEUMANN_PRES MLC_LAT MLC_LON MLC_CLASS MLC_WIND MLC_PRES USA_GUST BOM_GUST BOM_GUST_PER REUNION_GUST REUNION_GUST_PER USA_SEAHGT USA_SEARAD_NE USA_SEARAD_SE USA_SEARAD_SW USA_SEARAD_NW STORM_SPEED STORM_DIR
1959139N09071 1959 33 NI AS NOT_NAMED 1959-05-18 18:00:00 TS 8.80000 70.7000 main 609 602 O________O____ jtwc_io IO011959 8.80000 70.7000 -1 8.80000 70.7000 TC 2 336
1959139N09071 1959 33 NI AS NOT_NAMED 1959-05-18 21:00:00 TS 8.86250 70.6575 main 602 602 P________P____ IO011959 8.86250 70.6575 -1 8.86250 70.6575 TC 2 333
1959139N09071 1959 33 NI AS NOT_NAMED 1959-05-19 00:00:00 TS 9.00000 70.6000 main 605 598 O________O____ jtwc_io IO011959 9.00000 70.6000 -1 9.00000 70.6000 TC 25 4 341
1959139N09071 1959 33 NI AS NOT_NAMED 1959-05-19 03:00:00 TS 9.26667 70.5133 main 596 589 P________PO___ IO011959 9.26250 70.5150 -1 9.26250 70.5150 TC 25 9.30000 70.5000 1 6 341
1959139N09071 1959 33 NI AS NOT_NAMED 1959-05-19 06:00:00 TS 9.60408 70.3907 main 589 584 O________OP___ jtwc_io IO011959 9.60000 70.4000 -1 9.60000 70.4000 TC 25 9.62038 70.3533 1 7 339
1959139N09071 1959 33 NI AS NOT_NAMED 1959-05-19 09:00:00 TS 9.94797 70.2487 main 593 578 P________PP___ IO011959 9.94999 70.2650 -1 9.94999 70.2650 TC 25 9.94258 70.2052 1 8 336
1959139N09071 1959 33 NI AS NOT_NAMED 1959-05-19 12:00:00 TS 10.2895 70.0848 main 583 583 O________OP___ jtwc_io IO011959 10.3000 70.1000 -1 10.3000 70.1000 TC 25 10.2685 70.0545 1 7 332
1959139N09071 1959 33 NI AS NOT_NAMED 1959-05-19 15:00:00 TS 10.6000 69.9000 main 587 583 P________PO___ IO011959 10.6000 69.9000 -1 10.6000 69.9000 TC 25 10.6000 69.9000 1 7 330
1959139N09071 1959 33 NI AS NOT_NAMED 1959-05-19 18:00:00 TS 10.9124 69.7134 main 594 590 O________OP___ jtwc_io IO011959 10.9000 69.7000 -1 10.9000 69.7000 TC 25 10.9371 69.7402 1 7 333
1959139N09071 1959 33 NI AS NOT_NAMED 1959-05-19 21:00:00 TS 11.2575 69.5574 main 590 590 P________PP___ IO011959 11.2500 69.5499 -1 11.2500 69.5499 TC 25 11.2724 69.5724 1 8 336
1959139N09071 1959 33 NI AS NOT_NAMED 1959-05-20 00:00:00 TS 11.5988 69.3978 main 602 599 O________OP___ jtwc_io IO011959 11.6000 69.4000 -1 11.6000 69.4000 TC 25 11.5965 69.3933 1 7 332
1959139N09071 1959 33 NI AS NOT_NAMED 1959-05-20 03:00:00 TS 11.9100 69.2100 main 616 614 P________PO___ IO011959 11.9150 69.2150 -1 11.9150 69.2150 TC 25 11.9000 69.2000 1 7 327
1959139N09071 1959 33 NI AS NOT_NAMED 1959-05-20 06:00:00 TS 12.1905 68.9991 main 621 619 O________OP___ jtwc_io IO011959 12.2000 69.0000 -1 12.2000 69.0000 TC 25 12.1715 68.9973 1 7 321
1959139N09071 1959 33 NI AS NOT_NAMED 1959-05-20 09:00:00 TS 12.4508 68.7599 main 623 623 P________PP___ IO011959 12.4650 68.7500 -1 12.4650 68.7500 TC 30 12.4224 68.7797 1 7 316
1959139N09071 1959 33 NI AS NOT_NAMED 1959-05-20 12:00:00 TS 12.6874 68.5158 main 642 642 O________OP___ jtwc_io IO011959 12.7000 68.5000 -1 12.7000 68.5000 TC 35 12.6621 68.5473 1 6 315
1959139N09071 1959 33 NI AS NOT_NAMED 1959-05-20 15:00:00 TS 12.9000 68.2999 main 652 652 P________PO___ IO011959 12.8999 68.2999 -1 12.8999 68.2999 TC 35 12.9000 68.3000 2 6 316
1959139N09071 1959 33 NI AS NOT_NAMED 1959-05-20 18:00:00 TS 13.1179 68.0932 main 664 660 O________OP___ jtwc_io IO011959 13.1000 68.1000 -1 13.1000 68.1000 TC 35 13.1537 68.0796 2 6 318
1959139N09071 1959 33 NI AS NOT_NAMED 1959-05-20 21:00:00 TS 13.3589 67.8714 main 671 671 P________PP___ IO011959 13.3349 67.8874 -1 13.3349 67.8874 TC 50 13.4068 67.8394 2 7 315
1959139N09071 1959 33 NI AS NOT_NAMED 1959-05-21 00:00:00 TS 13.6189 67.5848 main 692 692 O________OP___ jtwc_io IO011959 13.6000 67.6000 -1 13.6000 67.6000 TC 65 13.6566 67.5545 2 9 310
1959139N09071 1959 33 NI AS NOT_NAMED 1959-05-21 03:00:00 TS 13.9050 67.1967 main 716 716 P________PO___ IO011959 13.9075 67.1951 -1 13.9075 67.1951 TC 65 13.9000 67.2000 4 10 304
1959139N09071 1959 33 NI AS NOT_NAMED 1959-05-21 06:00:00 TS 14.1843 66.7144 main 753 753 O________OP___ jtwc_io IO011959 14.2000 66.7000 -1 14.2000 66.7000 TC 65 14.1528 66.7431 4 11 297
1959139N09071 1959 33 NI AS NOT_NAMED 1959-05-21 09:00:00 TS 14.4135 66.1776 main 796 796 P________PP___ IO011959 14.4225 66.1574 -1 14.4225 66.1574 TC 65 14.3955 66.2180 4 11 292
1959139N09071 1959 33 NI AS NOT_NAMED 1959-05-21 12:00:00 TS 14.6051 65.6196 main 852 852 O________OP___ jtwc_io IO011959 14.6000 65.6000 -1 14.6000 65.6000 TC 65 14.6153 65.6588 4 11 289
1959139N09071 1959 33 NI AS NOT_NAMED 1959-05-21 15:00:00 TS 14.7766 65.0949 main 887 856 P________PO___ IO011959 14.7648 65.0924 -1 14.7648 65.0924 TC 65 14.8000 65.1000 4 10 287
1959139N09071 1959 33 NI AS NOT_NAMED 1959-05-21 18:00:00 TS 14.9117 64.6082 main 856 805 O________OP___ jtwc_io IO011959 14.9000 64.6000 -1 14.9000 64.6000 TC 65 14.9350 64.6246 4 10 284
1959139N09071 1959 33 NI AS NOT_NAMED 1959-05-21 21:00:00 TS 15.0169 64.1221 main 805 755 P________PP___ IO011959 15.0073 64.1074 -1 15.0073 64.1074 TC 65 15.0361 64.1515 4 10 282
1959139N09071 1959 33 NI AS NOT_NAMED 1959-05-22 00:00:00 TS 15.1064 63.6176 main 755 705 O________OP___ jtwc_io IO011959 15.1000 63.6000 -1 15.1000 63.6000 TC 65 15.1192 63.6528 4 10 280
1959139N09071 1959 33 NI AS NOT_NAMED 1959-05-22 03:00:00 TS 15.1998 63.0916 main 705 648 P________PO___ IO011959 15.1997 63.0874 -1 15.1997 63.0874 TC 65 15.2000 63.1000 4 11 280
1959139N09071 1959 33 NI AS NOT_NAMED 1959-05-22 06:00:00 TS 15.3015 62.4791 main 648 585 O________OP___ jtwc_io IO011959 15.3000 62.5000 -1 15.3000 62.5000 TC 65 15.3046 62.4373 4 13 279
1959139N09071 1959 33 NI AS NOT_NAMED 1959-05-22 09:00:00 TS 15.4029 61.7509 main 585 518 P________PP___ IO011959 15.4002 61.7650 -1 15.4002 61.7650 TC 65 15.4083 61.7226 4 14 278
1959139N09071 1959 33 NI AS NOT_NAMED 1959-05-22 12:00:00 TS 15.5026 60.9989 main 518 470 O________OP___ jtwc_io IO011959 15.5000 61.0000 -1 15.5000 61.0000 TC 65 15.5077 60.9966 4 14 278
1959139N09071 1959 33 NI AS NOT_NAMED 1959-05-22 15:00:00 TS 15.6048 60.3183 main 463 420 P________PO___ IO011959 15.6072 60.3275 -1 15.6072 60.3275 TC 65 15.6000 60.3000 4 13 279
1959139N09071 1959 33 NI AS NOT_NAMED 1959-05-22 18:00:00 TS 15.6938 59.6922 main 420 377 O________OP___ jtwc_io IO011959 15.7000 59.7000 -1 15.7000 59.7000 TC 65 15.6814 59.6767 4 12 277
1959139N09071 1959 33 NI AS NOT_NAMED 1959-05-22 21:00:00 TS 15.7521 59.0815 main 370 324 P________PP___ IO011959 15.7499 59.0774 -1 15.7499 59.0774 TC 65 15.7566 59.0898 4 11 276
1959139N09071 1959 33 NI AS NOT_NAMED 1959-05-23 00:00:00 TS 15.8095 58.5110 main 324 281 O________OP___ jtwc_io IO011959 15.8000 58.5000 -1 15.8000 58.5000 TC 65 15.8285 58.5330 4 11 278
1959139N09071 1959 33 NI AS NOT_NAMED 1959-05-23 03:00:00 TS 15.8998 57.9900 main 281 242 P________PO___ IO011959 15.8998 57.9851 -1 15.8998 57.9851 TC 65 15.9000 58.0000 4 10 280
1959139N09071 1959 33 NI AS NOT_NAMED 1959-05-23 06:00:00 TS 15.9889 57.4860 main 242 222 O________OP___ jtwc_io IO011959 16.0000 57.5000 -1 16.0000 57.5000 TC 65 15.9666 57.4580 4 10 278
1959139N09071 1959 33 NI AS NOT_NAMED 1959-05-23 09:00:00 TS 16.0448 56.9748 main 222 177 P________PP___ IO011959 16.0499 56.9924 -1 16.0499 56.9924 TC 65 16.0347 56.9398 4 10 277
1959139N09071 1959 33 NI AS NOT_NAMED 1959-05-23 12:00:00 TS 16.1035 56.4839 main 177 134 O________OP___ jtwc_io IO011959 16.1000 56.5000 -1 16.1000 56.5000 TC 65 16.1104 56.4517 4 9 279
1959139N09071 1959 33 NI AS NOT_NAMED 1959-05-23 15:00:00 TS 16.1899 56.0233 main 134 101 P________PO___ IO011959 16.1849 56.0350 -1 16.1849 56.0350 TC 65 16.2000 56.0000 4 9 283
1959139N09071 1959 33 NI AS NOT_NAMED 1959-05-23 18:00:00 TS 16.3031 55.5952 main 101 70 O________OP___ jtwc_io IO011959 16.3000 55.6000 -1 16.3000 55.6000 TC 65 16.3077 55.5881 4 8 287
1959139N09071 1959 33 NI AS NOT_NAMED 1959-05-23 21:00:00 TS 16.4374 55.1992 main 70 33 P________PP___ IO011959 16.4426 55.1926 -1 16.4426 55.1926 TC 65 16.4303 55.2080 4 8 291
1959139N09071 1959 33 NI AS NOT_NAMED 1959-05-24 00:00:00 TS 16.5814 54.8244 main 33 30 O________OP___ jtwc_io IO011959 16.6000 54.8000 -1 16.6000 54.8000 TC 65 16.5628 54.8489 4 7 291
1959139N09071 1959 33 NI AS NOT_NAMED 1959-05-24 03:00:00 NR 16.7000 54.5000 main 33 __________O___ IO011959 -1 TC 16.7000 54.5000 4 7 291

About IBTrACS Database

This database is a web-friendly format of International Best Track Archive for Climate Stewardship (IBTrACS), a global best track data archive curated by NOAA dating back to 1842.

Updated: 2021-10-25